Time;durP1;ratioP1;P1;durP2;ratioP2;P2;SDS_P1;SDS_P2;PMS_P1;PMS_P2;Temp;Humidity;BMP_temperature;BMP_pressure;BME280_temperature;BME280_humidity;BME280_pressure;Samples;Min_cycle;Max_cycle;Signal;HPM_P1;HPM_P2
2021/06/10 00:02:20;;;;;;;5.32;3.53;;;17.60;99.90;;;;;;6215358;23;20000;-77
2021/06/10 00:04:46;;;;;;;3.47;3.17;;;17.50;99.90;;;;;;6215263;23;20091;-77
2021/06/10 00:07:14;;;;;;;4.35;3.70;;;17.50;99.90;;;;;;6215148;23;19996;-77
2021/06/10 00:09:40;;;;;;;3.65;3.42;;;17.50;99.90;;;;;;6215369;23;20051;-77
2021/06/10 00:12:07;;;;;;;3.85;3.40;;;17.60;99.90;;;;;;6212559;23;20004;-77
2021/06/10 00:14:33;;;;;;;5.35;3.10;;;17.70;99.90;;;;;;6215048;23;20024;-77
2021/06/10 00:16:59;;;;;;;3.75;3.30;;;17.50;99.90;;;;;;6215006;23;20459;-78
2021/06/10 00:19:24;;;;;;;6.10;3.15;;;17.40;99.90;;;;;;6215119;23;20003;-78
2021/06/10 00:21:50;;;;;;;3.95;3.65;;;17.30;99.90;;;;;;6215229;23;20076;-77
2021/06/10 00:24:16;;;;;;;3.58;3.28;;;17.20;99.90;;;;;;6214671;23;20001;-77
2021/06/10 00:26:42;;;;;;;5.75;3.22;;;17.10;99.90;;;;;;6214723;23;20028;-77
2021/06/10 00:29:08;;;;;;;7.40;3.50;;;17.20;99.90;;;;;;6214689;23;19993;-77
2021/06/10 00:31:34;;;;;;;6.07;3.20;;;17.00;99.90;;;;;;6214896;23;20055;-77
2021/06/10 00:34:00;;;;;;;10.20;4.60;;;16.80;99.90;;;;;;6215207;23;20374;-77
2021/06/10 00:36:26;;;;;;;4.10;3.50;;;16.80;99.90;;;;;;6213266;23;20011;-77
2021/06/10 00:38:52;;;;;;;7.13;3.42;;;16.90;99.90;;;;;;6215062;23;20001;-77
2021/06/10 00:41:19;;;;;;;4.35;3.00;;;16.90;99.90;;;;;;6214546;23;20001;-77
2021/06/10 00:43:45;;;;;;;3.85;3.55;;;16.80;99.90;;;;;;6215014;23;19998;-77
2021/06/10 00:46:11;;;;;;;4.18;3.78;;;16.80;99.90;;;;;;6214543;23;20055;-77
2021/06/10 00:48:37;;;;;;;5.10;4.60;;;16.80;99.90;;;;;;6215021;23;19993;-77
2021/06/10 00:51:03;;;;;;;5.63;3.88;;;16.70;99.90;;;;;;6211283;23;20008;-77
2021/06/10 00:53:29;;;;;;;3.85;3.47;;;16.70;99.90;;;;;;6214836;23;20366;-77
2021/06/10 00:55:58;;;;;;;3.97;3.45;;;16.70;99.90;;;;;;6212431;23;20005;-76
2021/06/10 00:58:25;;;;;;;3.55;3.25;;;16.70;99.90;;;;;;6214233;23;19996;-77
2021/06/10 01:00:51;;;;;;;5.30;3.80;;;16.50;99.90;;;;;;6213916;23;20004;-77
2021/06/10 01:03:18;;;;;;;9.85;4.20;;;16.40;99.90;;;;;;6214679;23;20004;-77
2021/06/10 01:05:52;;;;;;;4.70;4.35;;;16.30;99.90;;;;;;6214754;23;20484;-77
2021/06/10 01:08:24;;;;;;;5.50;4.35;;;16.00;99.90;;;;;;6214164;23;20000;-77
2021/06/10 01:11:22;;;;;;;4.43;4.03;;;16.00;99.90;;;;;;6213875;23;19997;-77
2021/06/10 01:14:03;;;;;;;8.25;3.72;;;16.20;99.90;;;;;;6214831;23;20003;-77
2021/06/10 01:16:32;;;;;;;3.63;3.33;;;16.40;99.90;;;;;;6214770;23;20000;-77
2021/06/10 01:19:06;;;;;;;4.23;3.83;;;16.40;99.90;;;;;;6214863;23;20454;-77
2021/06/10 01:21:32;;;;;;;6.57;4.20;;;16.40;99.90;;;;;;6214551;23;20244;-77
2021/06/10 01:24:06;;;;;;;3.60;3.30;;;16.50;99.90;;;;;;6212327;23;20005;-77
2021/06/10 01:26:41;;;;;;;6.47;3.92;;;16.40;99.90;;;;;;6214118;23;20079;-77
2021/06/10 01:29:11;;;;;;;6.32;4.18;;;16.40;99.90;;;;;;6212943;23;19997;-77
2021/06/10 01:31:38;;;;;;;5.45;4.13;;;16.40;99.90;;;;;;6214650;23;20004;-77
2021/06/10 01:34:06;;;;;;;5.30;3.75;;;16.40;99.90;;;;;;6212581;23;20072;-77
2021/06/10 01:36:36;;;;;;;4.95;3.83;;;16.30;99.90;;;;;;6214555;23;19997;-77
2021/06/10 01:39:06;;;;;;;3.80;3.45;;;16.30;99.90;;;;;;6212647;23;20001;-77
2021/06/10 01:41:33;;;;;;;3.85;3.53;;;16.40;99.90;;;;;;6214326;23;20079;-77
2021/06/10 01:44:01;;;;;;;5.40;3.63;;;16.50;99.90;;;;;;6214408;23;20004;-77
2021/06/10 01:46:29;;;;;;;7.25;3.60;;;16.30;99.90;;;;;;6214211;23;20004;-77
2021/06/10 01:48:55;;;;;;;6.47;3.70;;;16.20;99.90;;;;;;6213023;23;20008;-77
2021/06/10 01:51:28;;;;;;;6.75;4.13;;;16.30;99.90;;;;;;6214072;23;20005;-77
2021/06/10 01:53:57;;;;;;;9.93;4.55;;;16.10;99.90;;;;;;6214462;23;20039;-77
2021/06/10 01:56:25;;;;;;;6.10;3.40;;;16.00;99.90;;;;;;6214272;23;20391;-77
2021/06/10 01:58:52;;;;;;;4.00;3.70;;;16.00;99.90;;;;;;6214494;23;20004;-77
2021/06/10 02:01:22;;;;;;;3.83;3.53;;;16.10;99.90;;;;;;6214268;23;20005;-77
2021/06/10 02:03:48;;;;;;;4.55;3.80;;;16.20;99.90;;;;;;6212510;23;20439;-77
2021/06/10 02:06:15;;;;;;;7.72;3.47;;;16.30;99.90;;;;;;6213734;23;20001;-77
2021/06/10 02:08:44;;;;;;;3.47;3.17;;;16.40;99.90;;;;;;6214376;23;19996;-77
2021/06/10 02:11:10;;;;;;;4.07;3.78;;;16.40;99.90;;;;;;6214246;23;19997;-77
2021/06/10 02:13:36;;;;;;;4.10;3.75;;;16.40;99.90;;;;;;6214383;23;19992;-77
2021/06/10 02:16:06;;;;;;;4.03;3.63;;;16.50;99.90;;;;;;6214404;23;20454;-77
2021/06/10 02:18:33;;;;;;;6.83;3.90;;;16.70;99.90;;;;;;6215175;23;20075;-77
2021/06/10 02:21:04;;;;;;;5.50;3.60;;;16.70;99.90;;;;;;6215869;23;20005;-78
2021/06/10 02:23:31;;;;;;;7.57;3.85;;;16.80;99.90;;;;;;6215670;23;19996;-77
2021/06/10 02:25:57;;;;;;;4.35;4.03;;;16.60;99.90;;;;;;6215985;23;20046;-77
2021/06/10 02:28:23;;;;;;;4.95;3.55;;;16.60;99.90;;;;;;6214574;23;20000;-77
2021/06/10 02:30:49;;;;;;;5.93;4.00;;;16.70;99.90;;;;;;6216166;23;20055;-77
2021/06/10 02:33:17;;;;;;;4.55;4.13;;;16.70;99.90;;;;;;6216082;23;19996;-77
2021/06/10 02:35:43;;;;;;;3.97;3.55;;;16.80;99.90;;;;;;6215818;23;20466;-77
2021/06/10 02:38:10;;;;;;;5.88;4.60;;;16.60;99.90;;;;;;6216262;23;20001;-77
2021/06/10 02:40:45;;;;;;;3.50;3.20;;;16.50;99.90;;;;;;6216056;23;19997;-77
2021/06/10 02:43:11;;;;;;;5.95;4.03;;;16.40;99.90;;;;;;6214709;23;20020;-77
2021/06/10 02:45:43;;;;;;;6.85;3.65;;;16.40;99.90;;;;;;6215884;23;20007;-77
2021/06/10 02:48:10;;;;;;;4.72;3.88;;;16.60;99.90;;;;;;6214538;23;20001;-77
2021/06/10 02:50:41;;;;;;;6.30;4.22;;;16.70;99.90;;;;;;6215411;23;20064;-77
2021/06/10 02:53:14;;;;;;;5.88;4.10;;;16.80;99.90;;;;;;6216000;23;20076;-77
2021/06/10 02:55:40;;;;;;;10.73;3.83;;;16.80;99.90;;;;;;6215697;23;20623;-77
2021/06/10 02:58:07;;;;;;;4.00;3.70;;;16.80;99.90;;;;;;6216148;23;19997;-77
2021/06/10 03:00:34;;;;;;;4.03;3.60;;;16.80;99.90;;;;;;6215994;23;20007;-77
2021/06/10 03:03:01;;;;;;;7.20;3.88;;;16.90;99.90;;;;;;6215978;23;19996;-77
2021/06/10 03:05:30;;;;;;;4.75;4.35;;;16.90;99.90;;;;;;6213530;23;20001;-77
2021/06/10 03:07:56;;;;;;;6.78;4.25;;;16.90;99.90;;;;;;6215967;23;20023;-77
2021/06/10 03:10:25;;;;;;;4.65;3.40;;;17.00;99.90;;;;;;6215821;23;19992;-77
2021/06/10 03:12:51;;;;;;;4.75;4.25;;;17.00;99.90;;;;;;6215787;23;20068;-77
2021/06/10 03:15:18;;;;;;;4.32;3.80;;;17.00;99.90;;;;;;6215951;23;20001;-77
2021/06/10 03:17:44;;;;;;;5.15;4.57;;;17.00;99.90;;;;;;6215794;23;20001;-77
2021/06/10 03:20:11;;;;;;;6.93;5.05;;;17.00;99.90;;;;;;6213849;23;20004;-77
2021/06/10 03:22:37;;;;;;;6.18;4.32;;;17.10;99.90;;;;;;6215599;23;20490;-77
2021/06/10 03:25:06;;;;;;;11.50;5.68;;;17.20;99.90;;;;;;6215803;23;20024;-77
2021/06/10 03:27:33;;;;;;;6.70;5.28;;;17.30;99.90;;;;;;6214676;23;20374;-77
2021/06/10 03:29:59;;;;;;;5.65;5.05;;;17.40;99.90;;;;;;6214077;23;20051;-77
2021/06/10 03:32:27;;;;;;;5.80;5.13;;;17.20;99.90;;;;;;6213968;23;19996;-77
2021/06/10 03:34:54;;;;;;;8.32;5.82;;;17.10;99.90;;;;;;6215234;23;20001;-77
2021/06/10 03:37:21;;;;;;;6.03;4.40;;;17.10;99.90;;;;;;6214410;23;20001;-77
2021/06/10 03:39:48;;;;;;;5.95;5.05;;;17.30;99.90;;;;;;6214267;23;20438;-77
2021/06/10 03:42:15;;;;;;;5.18;4.63;;;17.30;99.90;;;;;;6214411;23;20024;-77
2021/06/10 03:44:41;;;;;;;8.65;4.68;;;17.40;99.90;;;;;;6213258;23;20072;-77
2021/06/10 03:47:07;;;;;;;5.60;4.53;;;17.30;99.90;;;;;;6214117;23;20442;-77
2021/06/10 03:49:33;;;;;;;4.63;4.22;;;17.40;99.90;;;;;;6213549;23;19993;-77
2021/06/10 03:51:59;;;;;;;7.30;5.22;;;17.40;99.90;;;;;;6213202;23;20017;-77
2021/06/10 03:54:25;;;;;;;4.93;4.45;;;17.40;99.90;;;;;;6213929;23;20076;-77
2021/06/10 03:56:50;;;;;;;4.93;3.78;;;17.30;99.90;;;;;;6213948;23;20118;-78
2021/06/10 03:59:17;;;;;;;5.07;4.28;;;17.00;99.90;;;;;;6213730;23;20338;-78
2021/06/10 04:01:42;;;;;;;4.60;4.20;;;16.90;99.90;;;;;;6213522;23;20003;-77
2021/06/10 04:04:08;;;;;;;4.47;4.07;;;16.90;99.90;;;;;;6212922;23;20004;-77
2021/06/10 04:06:37;;;;;;;6.05;4.53;;;16.90;99.90;;;;;;6213214;23;20005;-77
2021/06/10 04:09:05;;;;;;;7.93;5.28;;;17.00;99.90;;;;;;6213917;23;20024;-77
2021/06/10 04:11:32;;;;;;;8.25;4.72;;;17.10;99.90;;;;;;6213871;23;19993;-77
2021/06/10 04:13:59;;;;;;;4.50;4.10;;;17.20;99.90;;;;;;6214357;23;20327;-77
2021/06/10 04:16:25;;;;;;;6.07;4.75;;;17.20;99.90;;;;;;6213435;23;20001;-77
2021/06/10 04:18:53;;;;;;;7.55;3.88;;;17.20;99.90;;;;;;6212972;23;20104;-77
2021/06/10 04:21:19;;;;;;;7.60;4.45;;;17.20;99.90;;;;;;6213490;23;20011;-77
2021/06/10 04:23:47;;;;;;;5.78;4.95;;;17.30;99.90;;;;;;6213193;23;20359;-77
2021/06/10 04:26:13;;;;;;;10.05;5.03;;;17.30;99.90;;;;;;6211994;23;20008;-78
2021/06/10 04:28:39;;;;;;;9.35;4.78;;;17.20;99.90;;;;;;6212075;23;20001;-77
2021/06/10 04:31:05;;;;;;;5.85;5.25;;;17.10;99.90;;;;;;6213632;23;19992;-77
2021/06/10 04:33:31;;;;;;;5.82;5.18;;;17.20;99.90;;;;;;6213398;23;20047;-77
2021/06/10 04:35:56;;;;;;;6.82;5.45;;;17.30;99.90;;;;;;6214710;23;20063;-77
2021/06/10 04:38:22;;;;;;;5.65;5.15;;;17.30;99.90;;;;;;6213662;23;19996;-77
2021/06/10 04:40:48;;;;;;;6.47;5.03;;;17.30;99.90;;;;;;6213952;23;20076;-77
2021/06/10 04:43:14;;;;;;;6.05;5.50;;;17.30;99.90;;;;;;6214705;23;20027;-77
2021/06/10 04:45:40;;;;;;;6.32;5.63;;;17.20;99.90;;;;;;6214215;23;20004;-77
2021/06/10 04:48:06;;;;;;;6.82;6.05;;;17.30;99.90;;;;;;6214679;23;20043;-77
2021/06/10 04:50:34;;;;;;;7.35;5.60;;;17.40;99.90;;;;;;6215111;23;19992;-77
2021/06/10 04:53:00;;;;;;;5.78;5.38;;;17.40;99.90;;;;;;6212965;23;20078;-77
2021/06/10 04:55:26;;;;;;;6.50;5.90;;;17.50;99.90;;;;;;6211951;23;20004;-77
2021/06/10 04:57:52;;;;;;;5.85;5.30;;;17.50;99.90;;;;;;6211665;23;20034;-77
2021/06/10 05:00:18;;;;;;;7.05;6.45;;;17.70;99.90;;;;;;6213309;23;19996;-77
2021/06/10 05:02:44;;;;;;;6.45;5.68;;;17.70;99.90;;;;;;6213352;23;20000;-77
2021/06/10 05:05:10;;;;;;;5.53;4.90;;;17.80;99.90;;;;;;6213267;23;20366;-77
2021/06/10 05:07:36;;;;;;;9.93;5.80;;;17.80;99.90;;;;;;6213645;23;20020;-77
2021/06/10 05:10:03;;;;;;;6.80;6.28;;;17.90;99.90;;;;;;6213199;23;20461;-77
2021/06/10 05:12:29;;;;;;;7.90;6.28;;;17.90;99.90;;;;;;6213424;23;20000;-77
2021/06/10 05:14:55;;;;;;;7.88;6.10;;;18.00;99.90;;;;;;6212844;23;20001;-77
2021/06/10 05:17:20;;;;;;;6.43;5.82;;;18.00;99.90;;;;;;6213260;23;20457;-77
2021/06/10 05:19:46;;;;;;;7.90;5.97;;;18.00;99.90;;;;;;6213336;23;20003;-77
2021/06/10 05:22:12;;;;;;;7.95;6.15;;;18.10;99.90;;;;;;6213194;23;20383;-77
2021/06/10 05:24:40;;;;;;;6.40;5.72;;;18.10;99.90;;;;;;6213126;23;20023;-77
2021/06/10 05:27:09;;;;;;;9.73;5.63;;;18.20;99.90;;;;;;6213242;23;20007;-77
2021/06/10 05:29:38;;;;;;;7.72;6.03;;;18.20;99.90;;;;;;6213459;23;20496;-77
2021/06/10 05:32:05;;;;;;;8.43;7.38;;;18.20;99.90;;;;;;6212737;23;20324;-77
2021/06/10 05:34:30;;;;;;;8.13;6.47;;;18.30;99.90;;;;;;6214030;23;19993;-77
2021/06/10 05:36:56;;;;;;;6.45;5.95;;;18.30;99.90;;;;;;6214759;23;19997;-77
2021/06/10 05:39:22;;;;;;;10.85;7.07;;;18.30;99.90;;;;;;6214221;23;20474;-77
2021/06/10 05:41:48;;;;;;;8.35;6.53;;;18.40;99.90;;;;;;6213137;23;19996;-77
2021/06/10 05:44:14;;;;;;;9.70;6.55;;;18.50;99.90;;;;;;6213379;23;20379;-77
2021/06/10 05:46:40;;;;;;;14.82;7.22;;;18.70;99.90;;;;;;6214144;23;19997;-77
2021/06/10 05:49:06;;;;;;;7.32;6.20;;;18.70;99.90;;;;;;6213963;23;19996;-77
2021/06/10 05:51:32;;;;;;;6.82;5.80;;;18.90;99.90;;;;;;6214343;23;20063;-78
2021/06/10 05:53:58;;;;;;;6.45;5.63;;;19.00;99.90;;;;;;6215106;23;20000;-77
2021/06/10 05:56:24;;;;;;;9.25;6.25;;;19.20;99.90;;;;;;6216245;23;20008;-77
2021/06/10 05:58:49;;;;;;;8.20;6.28;;;19.30;99.90;;;;;;6216247;23;20442;-76
2021/06/10 06:01:15;;;;;;;6.57;5.95;;;19.50;99.90;;;;;;6215999;23;20028;-78
2021/06/10 06:03:42;;;;;;;24.48;6.40;;;19.70;99.90;;;;;;6216481;23;20316;-75
2021/06/10 06:06:07;;;;;;;10.98;6.20;;;19.80;99.90;;;;;;6214506;23;20402;-76
2021/06/10 06:08:34;;;;;;;5.93;5.43;;;20.10;99.90;;;;;;6216437;23;19996;-76
2021/06/10 06:11:00;;;;;;;6.50;5.70;;;20.20;99.90;;;;;;6216401;23;20021;-76
2021/06/10 06:13:44;;;;;;;7.00;6.40;;;20.30;99.90;;;;;;6216087;23;20435;-76
2021/06/10 06:16:11;;;;;;;9.90;6.03;;;20.20;99.90;;;;;;6216978;23;20081;-76
2021/06/10 06:18:38;;;;;;;7.13;6.45;;;20.20;99.90;;;;;;6216558;23;20465;-76
2021/06/10 06:21:04;;;;;;;13.20;6.35;;;20.10;99.90;;;;;;6216289;23;20000;-76
2021/06/10 06:23:31;;;;;;;7.68;6.97;;;20.20;99.90;;;;;;6216451;23;20107;-76
2021/06/10 06:25:58;;;;;;;7.50;6.22;;;20.00;99.90;;;;;;6216254;23;19997;-76
2021/06/10 06:28:24;;;;;;;6.00;5.40;;;20.00;99.90;;;;;;6216131;23;20308;-76
2021/06/10 06:30:49;;;;;;;6.25;5.63;;;19.80;99.90;;;;;;6216451;23;20000;-76
2021/06/10 06:33:15;;;;;;;7.10;5.97;;;19.80;99.90;;;;;;6216002;23;20162;-76
2021/06/10 06:35:43;;;;;;;7.05;6.40;;;19.60;99.90;;;;;;6216253;23;20071;-76
2021/06/10 06:38:09;;;;;;;7.90;5.97;;;19.60;99.90;;;;;;6214587;23;20005;-76
2021/06/10 06:40:35;;;;;;;6.47;5.88;;;19.60;99.90;;;;;;6216365;23;20001;-76
2021/06/10 06:43:00;;;;;;;8.20;5.60;;;19.70;99.90;;;;;;6215658;23;20000;-76
2021/06/10 06:45:26;;;;;;;7.03;5.70;;;19.70;99.90;;;;;;6216026;23;20462;-76
2021/06/10 06:47:52;;;;;;;6.70;5.97;;;19.70;99.90;;;;;;6216261;23;19993;-76
2021/06/10 06:50:18;;;;;;;8.75;6.20;;;19.80;99.90;;;;;;6216086;23;19993;-76
2021/06/10 06:52:45;;;;;;;7.20;6.07;;;19.70;99.90;;;;;;6214286;23;20016;-76
2021/06/10 06:55:11;;;;;;;7.93;6.63;;;19.80;99.90;;;;;;6216161;23;20443;-76
2021/06/10 06:57:37;;;;;;;8.00;6.30;;;19.90;99.90;;;;;;6215772;23;20079;-76
2021/06/10 07:00:06;;;;;;;8.32;5.72;;;19.90;99.90;;;;;;6216078;23;20020;-76
2021/06/10 07:02:32;;;;;;;7.60;6.28;;;19.90;99.90;;;;;;6216262;23;20442;-76
2021/06/10 07:04:58;;;;;;;7.38;6.35;;;20.10;99.90;;;;;;6215992;23;20004;-76
2021/06/10 07:07:24;;;;;;;6.88;6.28;;;20.30;99.90;;;;;;6215848;23;20027;-76
2021/06/10 07:09:49;;;;;;;6.22;5.63;;;20.30;99.90;;;;;;6216123;23;20067;-76
2021/06/10 07:12:15;;;;;;;11.10;5.70;;;20.40;99.90;;;;;;6215464;23;19993;-76
2021/06/10 07:14:41;;;;;;;8.38;6.07;;;20.40;99.90;;;;;;6216038;23;20446;-76
2021/06/10 07:17:07;;;;;;;6.10;5.60;;;20.40;99.90;;;;;;6215936;23;20019;-76
2021/06/10 07:19:32;;;;;;;8.38;6.03;;;20.50;99.90;;;;;;6215674;23;19999;-76
2021/06/10 07:21:58;;;;;;;8.90;6.75;;;20.60;99.90;;;;;;6215889;23;19996;-76
2021/06/10 07:24:24;;;;;;;9.93;5.30;;;20.70;99.90;;;;;;6215858;23;19993;-76
2021/06/10 07:26:50;;;;;;;7.13;6.53;;;20.80;99.90;;;;;;6215388;23;20000;-76
2021/06/10 07:29:17;;;;;;;6.78;6.03;;;20.90;99.90;;;;;;6215415;23;20509;-76
2021/06/10 07:31:43;;;;;;;5.93;5.40;;;21.00;99.90;;;;;;6215931;23;19993;-76
2021/06/10 07:34:09;;;;;;;6.70;5.70;;;21.10;99.90;;;;;;6215491;23;20000;-77
2021/06/10 07:36:36;;;;;;;7.20;5.18;;;21.30;99.90;;;;;;6215853;23;20330;-77
2021/06/10 07:39:06;;;;;;;7.35;6.00;;;21.30;99.90;;;;;;6215772;23;20020;-76
2021/06/10 07:41:32;;;;;;;6.43;5.50;;;21.40;99.90;;;;;;6215202;23;20123;-76
2021/06/10 07:43:58;;;;;;;9.82;6.18;;;21.50;99.90;;;;;;6215563;23;20040;-76
2021/06/10 07:46:24;;;;;;;7.88;5.78;;;21.70;99.90;;;;;;6215486;23;20028;-77
2021/06/10 07:48:49;;;;;;;6.22;5.63;;;21.70;99.90;;;;;;6215658;23;19993;-76
2021/06/10 07:51:15;;;;;;;5.82;5.22;;;21.70;99.90;;;;;;6213723;23;20019;-76
2021/06/10 07:53:41;;;;;;;6.95;5.93;;;21.90;99.90;;;;;;6215453;23;19997;-77
2021/06/10 07:56:08;;;;;;;5.78;5.35;;;21.80;99.90;;;;;;6215075;23;20004;-77
2021/06/10 07:58:35;;;;;;;12.32;5.95;;;21.80;99.90;;;;;;6215566;23;20071;-77
2021/06/10 08:01:01;;;;;;;5.50;4.75;;;21.90;99.90;;;;;;6215553;23;19996;-77
2021/06/10 08:03:27;;;;;;;7.35;5.40;;;22.30;99.90;;;;;;6215210;23;20386;-77
2021/06/10 08:05:56;;;;;;;5.47;4.97;;;22.40;99.90;;;;;;6215292;23;19996;-77
2021/06/10 08:08:22;;;;;;;5.15;4.65;;;22.50;99.90;;;;;;6215332;23;20080;-77
2021/06/10 08:10:49;;;;;;;5.20;4.75;;;22.50;99.90;;;;;;6214995;23;20381;-77
2021/06/10 08:13:17;;;;;;;6.93;4.65;;;22.50;99.90;;;;;;6215297;23;20058;-77
2021/06/10 08:15:43;;;;;;;4.93;4.53;;;22.50;99.90;;;;;;6214833;23;20004;-77
2021/06/10 08:18:08;;;;;;;5.50;4.55;;;22.50;99.90;;;;;;6215198;23;20008;-77
2021/06/10 08:20:34;;;;;;;9.93;4.50;;;22.60;99.90;;;;;;6213719;23;20004;-77
2021/06/10 08:23:01;;;;;;;4.65;4.25;;;22.70;99.90;;;;;;6215281;23;20451;-77
2021/06/10 08:25:29;;;;;;;5.10;4.60;;;22.90;99.90;;;;;;6214529;23;20000;-77
2021/06/10 08:27:59;;;;;;;7.47;4.07;;;23.00;99.90;;;;;;6215249;23;20000;-77
2021/06/10 08:30:25;;;;;;;;;;;23.10;99.90;;;;;;6215763;23;20462;-77
2021/06/10 08:32:51;;;;;;;4.63;3.72;;;23.20;99.90;;;;;;6215054;23;19907;-77
2021/06/10 08:35:18;;;;;;;4.05;3.40;;;23.20;99.90;;;;;;6215012;23;19996;-77
2021/06/10 08:37:44;;;;;;;3.85;2.72;;;23.30;99.90;;;;;;6214872;23;20008;-77
2021/06/10 08:40:13;;;;;;;3.15;2.83;;;23.50;99.90;;;;;;6215034;23;20441;-77
2021/06/10 08:42:41;;;;;;;3.10;2.80;;;23.60;99.90;;;;;;6214983;23;19996;-77
2021/06/10 08:45:11;;;;;;;6.78;3.22;;;23.80;99.90;;;;;;6215171;23;20315;-77
2021/06/10 08:47:39;;;;;;;3.72;3.38;;;24.00;99.90;;;;;;6215078;23;19997;-77
2021/06/10 08:50:07;;;;;;;3.30;3.10;;;24.00;99.90;;;;;;6214983;23;19997;-77
2021/06/10 08:52:33;;;;;;;2.97;2.20;;;24.10;99.90;;;;;;6214360;23;20035;-77
2021/06/10 08:54:59;;;;;;;3.13;2.92;;;24.40;99.90;;;;;;6215213;23;20004;-77
2021/06/10 08:57:25;;;;;;;3.55;2.80;;;24.80;99.90;;;;;;6214953;23;20023;-77
2021/06/10 08:59:50;;;;;;;2.95;2.75;;;24.90;99.90;;;;;;6215075;23;20003;-77
2021/06/10 09:02:16;;;;;;;3.10;2.58;;;24.90;99.90;;;;;;6214884;23;20500;-77
2021/06/10 09:04:42;;;;;;;4.05;2.97;;;25.20;99.90;;;;;;6214762;23;19997;-77
2021/06/10 09:07:09;;;;;;;3.28;2.58;;;25.40;99.90;;;;;;6214783;23;19993;-77
2021/06/10 09:09:41;;;;;;;3.20;3.00;;;25.60;99.90;;;;;;6214746;23;19993;-78
2021/06/10 09:12:13;;;;;;;3.00;2.70;;;25.60;99.90;;;;;;6214983;23;20072;-78
2021/06/10 09:14:55;;;;;;;3.30;3.00;;;25.70;99.90;;;;;;6214781;23;20046;-77
2021/06/10 09:17:29;;;;;;;4.57;3.42;;;26.00;99.90;;;;;;6216156;23;20371;-77
2021/06/10 09:19:56;;;;;;;4.70;3.17;;;26.00;99.90;;;;;;6213195;23;20339;-77
2021/06/10 09:22:26;;;;;;;2.85;2.50;;;26.10;99.90;;;;;;6214358;23;20020;-77
2021/06/10 09:25:01;;;;;;;4.97;3.33;;;26.30;99.90;;;;;;6214635;23;20004;-77
2021/06/10 09:27:27;;;;;;;3.30;2.60;;;26.30;99.90;;;;;;6214607;23;20067;-78
2021/06/10 09:29:53;;;;;;;3.88;2.83;;;26.60;99.90;;;;;;6214723;23;20047;-78
2021/06/10 09:32:30;;;;;;;3.70;2.80;;;26.60;99.90;;;;;;6214783;23;20000;-77
2021/06/10 09:34:57;;;;;;;6.07;2.72;;;26.60;99.90;;;;;;6214657;23;20032;-78
2021/06/10 09:37:42;;;;;;;4.28;3.13;;;26.90;99.90;;;;;;6214285;23;20494;-78
2021/06/10 09:40:11;;;;;;;2.83;2.65;;;26.90;99.90;;;;;;6214631;23;20000;-78
2021/06/10 09:42:41;;;;;;;3.72;2.70;;;27.00;99.90;;;;;;6214617;23;20027;-78
2021/06/10 09:45:19;;;;;;;3.15;2.85;;;27.00;99.90;;;;;;6213088;23;20537;-78
2021/06/10 09:47:48;;;;;;;4.68;2.10;;;27.30;99.90;;;;;;6214550;23;19999;-78
2021/06/10 09:50:16;;;;;;;28.88;4.32;;;27.40;99.90;;;;;;6214171;23;20454;-78
2021/06/10 09:52:46;;;;;;;4.82;2.25;;;27.60;99.90;;;;;;6214284;23;20012;-78
2021/06/10 09:55:44;;;;;;;13.05;3.10;;;27.30;99.90;;;;;;6214669;23;20055;-78
2021/06/10 09:58:13;;;;;;;4.68;2.70;;;27.60;99.90;;;;;;6212995;23;20001;-78
2021/06/10 10:00:45;;;;;;;3.05;2.30;;;27.70;99.90;;;;;;6214486;23;20007;-78
2021/06/10 10:03:26;;;;;;;2.70;2.50;;;27.60;99.90;;;;;;6214529;23;20500;-78
2021/06/10 10:05:53;;;;;;;8.73;2.63;;;27.90;99.90;;;;;;6214151;23;19997;-78
2021/06/10 10:08:20;;;;;;;3.13;2.30;;;28.10;99.90;;;;;;6212957;23;20009;-78
2021/06/10 10:10:46;;;;;;;4.80;2.35;;;28.10;99.90;;;;;;6214381;23;19993;-78
2021/06/10 10:13:17;;;;;;;2.83;2.42;;;28.30;99.90;;;;;;6214530;23;19997;-78
2021/06/10 10:15:44;;;;;;;3.00;2.45;;;28.40;99.60;;;;;;6214819;23;20001;-78
2021/06/10 10:18:11;;;;;;;37.45;4.90;;;28.70;99.90;;;;;;6214361;23;20004;-78
2021/06/10 10:20:38;;;;;;;3.85;2.95;;;28.60;99.80;;;;;;6213909;23;19997;-78
2021/06/10 10:23:05;;;;;;;3.63;2.63;;;30.40;99.90;;;;;;6217556;23;20072;-78
2021/06/10 10:25:31;;;;;;;4.53;2.75;;;33.70;92.90;;;;;;6214285;23;20047;-78
2021/06/10 10:27:58;;;;;;;2.70;2.50;;;36.80;84.60;;;;;;6214454;23;20063;-78
2021/06/10 10:30:25;;;;;;;2.78;2.58;;;37.60;72.00;;;;;;6214630;23;19997;-78
2021/06/10 10:32:50;;;;;;;3.50;2.70;;;36.90;66.50;;;;;;6214306;23;20335;-78
2021/06/10 10:35:22;;;;;;;3.20;2.90;;;38.70;69.40;;;;;;6214231;23;19997;-78
2021/06/10 10:37:49;;;;;;;3.58;2.95;;;39.00;61.00;;;;;;6214285;23;20007;-78
2021/06/10 10:40:32;;;;;;;9.02;2.65;;;38.90;59.60;;;;;;6214235;23;20350;-78
2021/06/10 10:43:14;;;;;;;3.75;2.80;;;39.40;60.40;;;;;;6214748;23;20351;-78
2021/06/10 10:45:44;;;;;;;3.15;2.85;;;39.80;59.90;;;;;;6215956;23;20070;-78
2021/06/10 10:48:14;;;;;;;3.55;3.17;;;39.60;58.20;;;;;;6215697;23;20008;-78
2021/06/10 10:50:43;;;;;;;5.13;3.25;;;40.40;59.30;;;;;;6216116;23;20343;-78
2021/06/10 10:53:29;;;;;;;3.17;2.85;;;40.80;57.40;;;;;;6216032;23;20027;-78
2021/06/10 10:56:08;;;;;;;3.78;3.45;;;39.20;55.70;;;;;;6216069;23;20071;-78
2021/06/10 10:58:35;;;;;;;3.72;3.03;;;40.10;57.00;;;;;;6215953;23;19996;-78
2021/06/10 11:01:05;;;;;;;3.35;3.05;;;40.00;58.90;;;;;;6216132;23;19996;-78
2021/06/10 11:03:39;;;;;;;3.97;3.53;;;39.60;54.30;;;;;;6215655;23;20020;-78
2021/06/10 11:06:28;;;;;;;3.60;3.30;;;40.30;55.00;;;;;;6214267;23;20007;-78
2021/06/10 11:09:00;;;;;;;3.30;3.10;;;41.30;56.10;;;;;;6215965;23;20071;-78
2021/06/10 11:12:01;;;;;;;3.58;3.28;;;41.60;51.10;;;;;;6215962;23;20027;-78
2021/06/10 11:14:33;;;;;;;4.05;3.05;;;42.30;53.20;;;;;;6216180;23;19997;-79
2021/06/10 11:17:29;;;;;;;3.20;3.00;;;42.20;51.00;;;;;;6216048;23;20435;-79
2021/06/10 11:20:10;;;;;;;7.85;3.42;;;42.20;51.30;;;;;;6212873;23;20005;-79
2021/06/10 11:22:40;;;;;;;5.38;3.53;;;42.60;50.60;;;;;;6215687;23;20008;-79
2021/06/10 11:25:16;;;;;;;3.60;3.40;;;43.20;50.60;;;;;;6215957;23;20001;-79
2021/06/10 11:27:43;;;;;;;3.15;2.95;;;42.40;50.30;;;;;;6215953;23;19997;-79
2021/06/10 11:30:09;;;;;;;3.25;3.05;;;42.10;49.90;;;;;;6216231;23;20370;-79
2021/06/10 11:32:57;;;;;;;3.38;3.10;;;43.20;51.40;;;;;;6215352;23;20019;-77
2021/06/10 11:35:30;;;;;;;3.38;3.10;;;42.70;47.50;;;;;;6215716;23;20179;-77
2021/06/10 11:37:58;;;;;;;3.75;3.45;;;43.30;49.60;;;;;;6214037;23;20027;-76
2021/06/10 11:40:25;;;;;;;3.65;3.35;;;43.50;47.30;;;;;;6215939;23;20001;-76
2021/06/10 11:42:51;;;;;;;3.80;3.50;;;43.20;48.80;;;;;;6215417;23;19996;-76
2021/06/10 11:45:22;;;;;;;3.20;3.00;;;43.60;50.80;;;;;;6215682;23;20335;-75
2021/06/10 11:47:49;;;;;;;3.60;3.30;;;44.40;47.80;;;;;;6213576;23;19997;-75
2021/06/10 11:50:42;;;;;;;6.07;2.90;;;43.90;48.50;;;;;;6215513;23;20004;-75
2021/06/10 11:53:18;;;;;;;3.40;3.20;;;43.20;45.70;;;;;;6211305;23;20047;-75
2021/06/10 11:55:45;;;;;;;3.60;3.30;;;42.60;45.50;;;;;;6215682;23;20000;-75
2021/06/10 11:58:13;;;;;;;3.65;3.38;;;42.30;46.80;;;;;;6215552;23;19997;-75
2021/06/10 12:00:46;;;;;;;3.30;3.00;;;43.70;48.70;;;;;;6214927;23;20000;-75
2021/06/10 12:03:15;;;;;;;3.55;3.25;;;42.70;46.40;;;;;;6215592;23;19997;-75
2021/06/10 12:05:59;;;;;;;3.55;2.90;;;43.20;45.60;;;;;;6215316;23;20007;-75
2021/06/10 12:08:26;;;;;;;3.60;3.30;;;43.30;46.40;;;;;;6215524;23;19992;-75
2021/06/10 12:10:56;;;;;;;3.47;3.28;;;43.50;45.40;;;;;;6215377;23;20064;-75
2021/06/10 12:13:25;;;;;;;3.20;3.00;;;43.20;45.50;;;;;;6215523;23;20027;-75
2021/06/10 12:15:52;;;;;;;3.35;3.13;;;41.40;44.90;;;;;;6214999;23;20043;-75
2021/06/10 12:18:19;;;;;;;3.67;3.00;;;43.00;46.20;;;;;;6215539;23;20001;-75
2021/06/10 12:20:46;;;;;;;4.47;3.00;;;42.40;45.00;;;;;;6215184;23;20001;-76
2021/06/10 12:23:21;;;;;;;3.47;3.00;;;43.10;45.20;;;;;;6215386;23;20000;-75
2021/06/10 12:26:01;;;;;;;3.40;3.10;;;43.00;43.90;;;;;;6215336;23;19997;-75
2021/06/10 12:28:30;;;;;;;3.72;3.05;;;44.40;45.30;;;;;;6215384;23;20000;-75
2021/06/10 12:31:12;;;;;;;3.43;2.93;;;43.50;42.00;;;;;;6214709;23;20000;-75
2021/06/10 12:33:40;;;;;;;3.50;3.20;;;43.60;43.90;;;;;;6215293;23;19996;-75
2021/06/10 12:36:15;;;;;;;3.38;3.17;;;44.60;44.30;;;;;;6214925;23;19996;-75
2021/06/10 12:38:42;;;;;;;6.40;3.50;;;44.50;43.60;;;;;;6215141;23;20054;-76
2021/06/10 12:41:17;;;;;;;2.97;2.88;;;44.00;42.90;;;;;;6215140;23;20439;-75
2021/06/10 12:43:44;;;;;;;3.45;3.25;;;43.60;43.80;;;;;;6214990;23;19993;-76
2021/06/10 12:46:11;;;;;;;3.38;3.17;;;44.00;41.30;;;;;;6214654;23;20004;-75
2021/06/10 12:48:37;;;;;;;3.55;3.33;;;42.90;40.40;;;;;;6213517;23;20005;-75
2021/06/10 12:51:19;;;;;;;3.20;3.00;;;43.20;43.10;;;;;;6214570;23;20346;-76
2021/06/10 12:53:55;;;;;;;3.17;2.60;;;42.70;42.20;;;;;;6215039;23;19996;-75